Time;durP1;ratioP1;P1;durP2;ratioP2;P2;SDS_P1;SDS_P2;PMS_P1;PMS_P2;Temp;Humidity;BMP_temperature;BMP_pressure;BME280_temperature;BME280_humidity;BME280_pressure;Samples;Min_cycle;Max_cycle;Signal;HPM_P1;HPM_P2
2021/01/17 00:01:15;;;;;;;;;;;;;;;;;;5073680;28;20034;-61
2021/01/17 00:03:41;;;;;;;;;;;;;;;;;;5073878;28;19949;-61
2021/01/17 00:06:07;;;;;;;;;;;;;;;;;;5074061;28;19986;-61
2021/01/17 00:08:33;;;;;;;;;;;;;;;;;;5073598;28;20269;-61
2021/01/17 00:10:59;;;;;;;;;;;;;;;;;;5073962;28;19909;-61
2021/01/17 00:13:25;;;;;;;;;;;;;;;;;;5073612;28;19913;-61
2021/01/17 00:15:51;;;;;;;;;;;;;;;;;;5073850;28;19919;-61
2021/01/17 00:18:17;;;;;;;;;;;;;;;;;;5073801;28;19969;-61
2021/01/17 00:20:43;;;;;;;;;;;;;;;;;;5073573;28;19923;-61
2021/01/17 00:23:08;;;;;;;;;;;;;;;;;;5073225;28;19916;-61
2021/01/17 00:25:34;;;;;;;;;;;;;;;;;;5073770;28;19951;-61
2021/01/17 00:28:01;;;;;;;;;;;;;;;;;;5073701;28;19942;-61
2021/01/17 00:30:27;;;;;;;;;;;;;;;;;;5073260;28;19923;-61
2021/01/17 00:32:53;;;;;;;;;;;;;;;;;;5073427;28;19908;-61
2021/01/17 00:35:19;;;;;;;;;;;;;;;;;;5073391;28;19970;-61
2021/01/17 00:37:45;;;;;;;;;;;;;;;;;;5073559;28;19928;-61
2021/01/17 00:40:11;;;;;;;;;;;;;;;;;;5073433;28;19983;-61
2021/01/17 00:42:37;;;;;;;;;;;;;;;;;;5073665;28;19947;-60
2021/01/17 00:45:03;;;;;;;;;;;;;;;;;;5073409;28;20384;-61
2021/01/17 00:47:29;;;;;;;;;;;;;;;;;;5073244;28;19925;-61
2021/01/17 00:49:55;;;;;;;;;;;;;;;;;;5073371;28;19960;-61
2021/01/17 00:52:21;;;;;;;;;;;;;;;;;;5073362;28;19943;-61
2021/01/17 00:54:47;;;;;;;;;;;;;;;;;;5073547;28;20256;-61
2021/01/17 00:57:13;;;;;;;;;;;;;;;;;;5073571;28;20042;-61
2021/01/17 00:59:39;;;;;;;;;;;;;;;;;;5073360;28;20035;-61
2021/01/17 01:02:05;;;;;;;;;;;;;;;;;;5072990;28;20050;-60
2021/01/17 01:04:31;;;;;;;;;;;;;;;;;;5073133;28;19971;-61
2021/01/17 01:06:57;;;;;;;;;;;;;;;;;;5073746;28;19952;-61
2021/01/17 01:09:22;;;;;;;;;;;;;;;;;;5072994;28;20000;-61
2021/01/17 01:11:48;;;;;;;;;;;;;;;;;;5073127;28;19919;-60
2021/01/17 01:14:14;;;;;;;;;;;;;;;;;;5074187;28;19927;-61
2021/01/17 01:16:40;;;;;;;;;;;;;;;;;;5073289;28;20291;-61
2021/01/17 01:19:06;;;;;;;;;;;;;;;;;;5073273;28;19962;-61
2021/01/17 01:21:32;;;;;;;;;;;;;;;;;;5072967;28;20372;-61
2021/01/17 01:23:58;;;;;;;;;;;;;;;;;;5072696;28;19912;-61
2021/01/17 01:26:24;;;;;;;;;;;;;;;;;;5072950;28;19927;-61
2021/01/17 01:28:50;;;;;;;;;;;;;;;;;;5072941;28;19919;-61
2021/01/17 01:31:16;;;;;;;;;;;;;;;;;;5073077;28;20014;-61
2021/01/17 01:33:42;;;;;;;;;;;;;;;;;;5073170;28;19951;-61
2021/01/17 01:36:08;;;;;;;;;;;;;;;;;;5072827;28;20388;-61
2021/01/17 01:38:34;;;;;;;;;;;;;;;;;;5072810;28;19934;-62
2021/01/17 01:41:00;;;;;;;;;;;;;;;;;;5073269;28;19926;-61
2021/01/17 01:43:26;;;;;;;;;;;;;;;;;;5075649;28;20399;-61
2021/01/17 01:45:52;;;;;;;;;;;;;;;;;;5076413;28;20003;-61
2021/01/17 01:48:18;;;;;;;;;;;;;;;;;;5076537;28;19909;-61
2021/01/17 01:50:44;;;;;;;;;;;;;;;;;;5076524;28;20269;-61
2021/01/17 01:53:10;;;;;;;;;;;;;;;;;;5076542;28;19915;-61
2021/01/17 01:55:36;;;;;;;;;;;;;;;;;;5076168;28;20034;-61
2021/01/17 01:58:02;;;;;;;;;;;;;;;;;;5076244;28;19908;-61
2021/01/17 02:00:28;;;;;;;;;;;;;;;;;;5075889;28;19931;-61
2021/01/17 02:02:54;;;;;;;;;;;;;;;;;;5075829;28;19965;-61
2021/01/17 02:05:20;;;;;;;;;;;;;;;;;;5075922;28;20406;-61
2021/01/17 02:07:46;;;;;;;;;;;;;;;;;;5075916;28;19942;-61
2021/01/17 02:10:12;;;;;;;;;;;;;;;;;;5075857;28;19930;-61
2021/01/17 02:12:37;;;;;;;;;;;;;;;;;;5075779;28;19929;-61
2021/01/17 02:15:03;;;;;;;;;;;;;;;;;;5074517;28;19934;-61
2021/01/17 02:17:29;;;;;;;;;;;;;;;;;;5075734;28;20300;-61
2021/01/17 02:19:55;;;;;;;;;;;;;;;;;;5075585;28;20023;-61
2021/01/17 02:22:21;;;;;;;;;;;;;;;;;;5075707;28;19949;-61
2021/01/17 02:24:47;;;;;;;;;;;;;;;;;;5075424;28;20289;-61
2021/01/17 02:27:13;;;;;;;;;;;;;;;;;;5075807;28;19962;-61
2021/01/17 02:29:39;;;;;;;;;;;;;;;;;;5075468;28;19930;-61
2021/01/17 02:32:05;;;;;;;;;;;;;;;;;;5075542;28;20357;-61
2021/01/17 02:34:31;;;;;;;;;;;;;;;;;;5075351;28;19928;-61
2021/01/17 02:36:57;;;;;;;;;;;;;;;;;;5075544;28;19989;-61
2021/01/17 02:39:23;;;;;;;;;;;;;;;;;;5075308;28;20404;-61
2021/01/17 02:41:49;;;;;;;;;;;;;;;;;;5075334;28;19930;-61
2021/01/17 02:44:15;;;;;;;;;;;;;;;;;;5075316;28;20027;-61
2021/01/17 02:46:41;;;;;;;;;;;;;;;;;;5075301;28;19947;-60
2021/01/17 02:49:07;;;;;;;;;;;;;;;;;;5075284;28;19925;-61
2021/01/17 02:51:33;;;;;;;;;;;;;;;;;;5075055;28;20292;-61
2021/01/17 02:53:59;;;;;;;;;;;;;;;;;;5075164;28;19989;-61
2021/01/17 02:56:25;;;;;;;;;;;;;;;;;;5075157;28;19957;-61
2021/01/17 02:58:51;;;;;;;;;;;;;;;;;;5075018;28;19919;-61
2021/01/17 03:01:17;;;;;;;;;;;;;;;;;;5074645;28;20285;-60
2021/01/17 03:03:43;;;;;;;;;;;;;;;;;;5074896;28;19924;-61
2021/01/17 03:06:08;;;;;;;;;;;;;;;;;;5074956;28;19995;-61
2021/01/17 03:08:34;;;;;;;;;;;;;;;;;;5074833;28;20427;-61
2021/01/17 03:11:00;;;;;;;;;;;;;;;;;;5074789;28;19967;-61
2021/01/17 03:13:26;;;;;;;;;;;;;;;;;;5074677;28;19924;-61
2021/01/17 03:15:52;;;;;;;;;;;;;;;;;;5074635;28;19944;-61
2021/01/17 03:18:18;;;;;;;;;;;;;;;;;;5073302;28;19922;-61
2021/01/17 03:20:44;;;;;;;;;;;;;;;;;;5074445;28;20041;-61
2021/01/17 03:23:10;;;;;;;;;;;;;;;;;;5074670;28;20029;-61
2021/01/17 03:25:36;;;;;;;;;;;;;;;;;;5074434;28;20442;-60
2021/01/17 03:28:02;;;;;;;;;;;;;;;;;;5074458;28;19966;-61
2021/01/17 03:30:28;;;;;;;;;;;;;;;;;;5074363;28;20314;-61
2021/01/17 03:32:54;;;;;;;;;;;;;;;;;;5074514;28;19928;-61
2021/01/17 03:35:20;;;;;;;;;;;;;;;;;;5074308;28;19935;-61
2021/01/17 03:37:46;;;;;;;;;;;;;;;;;;5074191;28;20356;-61
2021/01/17 03:40:12;;;;;;;;;;;;;;;;;;5074173;28;19908;-60
2021/01/17 03:42:39;;;;;;;;;;;;;;;;;;5074059;28;20392;-61
2021/01/17 03:45:05;;;;;;;;;;;;;;;;;;5074436;28;20365;-61
2021/01/17 03:47:31;;;;;;;;;;;;;;;;;;5074069;28;20006;-60
2021/01/17 03:49:57;;;;;;;;;;;;;;;;;;5073959;28;20373;-60
2021/01/17 03:52:23;;;;;;;;;;;;;;;;;;5073994;28;19908;-61
2021/01/17 03:54:49;;;;;;;;;;;;;;;;;;5074325;28;19919;-61
2021/01/17 03:57:14;;;;;;;;;;;;;;;;;;5074031;28;19948;-61
2021/01/17 03:59:40;;;;;;;;;;;;;;;;;;5073764;28;20021;-60
2021/01/17 04:02:06;;;;;;;;;;;;;;;;;;5073659;28;20012;-61
2021/01/17 04:04:32;;;;;;;;;;;;;;;;;;5073412;28;19912;-61
2021/01/17 04:06:58;;;;;;;;;;;;;;;;;;5074066;28;20015;-60
2021/01/17 04:09:24;;;;;;;;;;;;;;;;;;5074067;28;19920;-61
2021/01/17 04:11:50;;;;;;;;;;;;;;;;;;5073705;28;20411;-61
2021/01/17 04:14:16;;;;;;;;;;;;;;;;;;5073961;28;20261;-61
2021/01/17 04:16:42;;;;;;;;;;;;;;;;;;5073808;28;19990;-61
2021/01/17 04:19:08;;;;;;;;;;;;;;;;;;5073717;28;20422;-61
2021/01/17 04:21:34;;;;;;;;;;;;;;;;;;5073469;28;19919;-60
2021/01/17 04:24:00;;;;;;;;;;;;;;;;;;5073528;28;19958;-61
2021/01/17 04:26:26;;;;;;;;;;;;;;;;;;5073420;28;20023;-61
2021/01/17 04:28:52;;;;;;;;;;;;;;;;;;5073744;28;19945;-61
2021/01/17 04:31:18;;;;;;;;;;;;;;;;;;5073551;28;19998;-61
2021/01/17 04:33:44;;;;;;;;;;;;;;;;;;5073449;28;20287;-61
2021/01/17 04:36:10;;;;;;;;;;;;;;;;;;5073494;28;20003;-61
2021/01/17 04:38:36;;;;;;;;;;;;;;;;;;5073431;28;20375;-61
2021/01/17 04:41:02;;;;;;;;;;;;;;;;;;5073387;28;19923;-61
2021/01/17 04:43:28;;;;;;;;;;;;;;;;;;5073307;28;19963;-61
2021/01/17 04:45:54;;;;;;;;;;;;;;;;;;5073384;28;19929;-60
2021/01/17 04:48:20;;;;;;;;;;;;;;;;;;5073229;28;19947;-61
2021/01/17 04:50:46;;;;;;;;;;;;;;;;;;5073250;28;19925;-61
2021/01/17 04:53:12;;;;;;;;;;;;;;;;;;5073245;28;19919;-61
2021/01/17 04:55:38;;;;;;;;;;;;;;;;;;5073228;28;19951;-61
2021/01/17 04:58:07;;;;;;;;;;;;;;;;;;5073144;28;19923;-61
2021/01/17 05:00:33;;;;;;;;;;;;;;;;;;5073214;28;19986;-61
2021/01/17 05:02:59;;;;;;;;;;;;;;;;;;5072997;28;20038;-61
2021/01/17 05:05:25;;;;;;;;;;;;;;;;;;5073243;28;20307;-61
2021/01/17 05:07:51;;;;;;;;;;;;;;;;;;5073026;28;19909;-61
2021/01/17 05:10:17;;;;;;;;;;;;;;;;;;5073402;28;20371;-61
2021/01/17 05:12:43;;;;;;;;;;;;;;;;;;5073012;28;19919;-61
2021/01/17 05:15:08;;;;;;;;;;;;;;;;;;5073109;28;20358;-61
2021/01/17 05:17:34;;;;;;;;;;;;;;;;;;5075101;28;19965;-61
2021/01/17 05:20:00;;;;;;;;;;;;;;;;;;5076889;28;20388;-61
2021/01/17 05:22:26;;;;;;;;;;;;;;;;;;5076725;28;19971;-61
2021/01/17 05:24:53;;;;;;;;;;;;;;;;;;5076801;28;19961;-61
2021/01/17 05:27:19;;;;;;;;;;;;;;;;;;5076731;28;19923;-61
2021/01/17 05:29:45;;;;;;;;;;;;;;;;;;5076932;28;19909;-61
2021/01/17 05:32:11;;;;;;;;;;;;;;;;;;5076728;28;19926;-61
2021/01/17 05:34:37;;;;;;;;;;;;;;;;;;5076628;28;19916;-61
2021/01/17 05:37:03;;;;;;;;;;;;;;;;;;5076801;28;19947;-61
2021/01/17 05:39:29;;;;;;;;;;;;;;;;;;5076560;28;20398;-61
2021/01/17 05:41:55;;;;;;;;;;;;;;;;;;5076699;28;19952;-61
2021/01/17 05:44:21;;;;;;;;;;;;;;;;;;5076268;28;20407;-60
2021/01/17 05:46:47;;;;;;;;;;;;;;;;;;5076382;28;19952;-61
2021/01/17 05:49:13;;;;;;;;;;;;;;;;;;5076485;28;19923;-61
2021/01/17 05:51:39;;;;;;;;;;;;;;;;;;5076616;28;19953;-61
2021/01/17 05:54:05;;;;;;;;;;;;;;;;;;5074913;28;19931;-61
2021/01/17 05:56:31;;;;;;;;;;;;;;;;;;5076154;28;20430;-61
2021/01/17 05:58:57;;;;;;;;;;;;;;;;;;5076376;28;19983;-62
2021/01/17 06:01:23;;;;;;;;;;;;;;;;;;5076345;28;20006;-61
2021/01/17 06:03:49;;;;;;;;;;;;;;;;;;5076050;28;19917;-61
2021/01/17 06:06:15;;;;;;;;;;;;;;;;;;5075981;28;20316;-61
2021/01/17 06:08:41;;;;;;;;;;;;;;;;;;5076184;28;19930;-61
2021/01/17 06:11:06;;;;;;;;;;;;;;;;;;5076346;28;20399;-61
2021/01/17 06:13:32;;;;;;;;;;;;;;;;;;5075879;28;19971;-61
2021/01/17 06:15:58;;;;;;;;;;;;;;;;;;5076149;28;19920;-61
2021/01/17 06:18:24;;;;;;;;;;;;;;;;;;5075904;28;19952;-61
2021/01/17 06:20:50;;;;;;;;;;;;;;;;;;5075956;28;19951;-61
2021/01/17 06:23:16;;;;;;;;;;;;;;;;;;5075973;28;19923;-61
2021/01/17 06:25:42;;;;;;;;;;;;;;;;;;5075877;28;19929;-61
2021/01/17 06:28:08;;;;;;;;;;;;;;;;;;5075361;28;20320;-61
2021/01/17 06:30:34;;;;;;;;;;;;;;;;;;5076006;28;20003;-61
2021/01/17 06:33:00;;;;;;;;;;;;;;;;;;5075510;28;19909;-61
2021/01/17 06:35:26;;;;;;;;;;;;;;;;;;5075910;28;20001;-61
2021/01/17 06:37:52;;;;;;;;;;;;;;;;;;5075636;28;19930;-61
2021/01/17 06:40:18;;;;;;;;;;;;;;;;;;5075492;28;19930;-60
2021/01/17 06:42:44;;;;;;;;;;;;;;;;;;5075400;28;19961;-58
2021/01/17 06:45:10;;;;;;;;;;;;;;;;;;5075523;28;19928;-61
2021/01/17 06:47:36;;;;;;;;;;;;;;;;;;5075579;28;20346;-61
2021/01/17 06:50:02;;;;;;;;;;;;;;;;;;5075155;28;19909;-61
2021/01/17 06:52:28;;;;;;;;;;;;;;;;;;5075189;28;19948;-61
2021/01/17 06:54:54;;;;;;;;;;;;;;;;;;5075135;28;19912;-61
2021/01/17 06:57:20;;;;;;;;;;;;;;;;;;5075335;28;19908;-61
2021/01/17 06:59:46;;;;;;;;;;;;;;;;;;5075195;28;20350;-61
2021/01/17 07:02:12;;;;;;;;;;;;;;;;;;5074860;28;19956;-60
2021/01/17 07:04:38;;;;;;;;;;;;;;;;;;5074842;28;19952;-60
2021/01/17 07:07:04;;;;;;;;;;;;;;;;;;5074939;28;20006;-60
2021/01/17 07:09:30;;;;;;;;;;;;;;;;;;5075008;28;19914;-61
2021/01/17 07:11:56;;;;;;;;;;;;;;;;;;5074978;28;20348;-60
2021/01/17 07:14:22;;;;;;;;;;;;;;;;;;5074811;28;19964;-60
2021/01/17 07:16:49;;;;;;;;;;;;;;;;;;5074778;28;19923;-61
2021/01/17 07:19:15;;;;;;;;;;;;;;;;;;5074609;28;20377;-61
2021/01/17 07:21:41;;;;;;;;;;;;;;;;;;5074990;28;19909;-62
2021/01/17 07:24:07;;;;;;;;;;;;;;;;;;5074515;28;19954;-61
2021/01/17 07:26:33;;;;;;;;;;;;;;;;;;5074588;28;19924;-60
2021/01/17 07:28:59;;;;;;;;;;;;;;;;;;5074727;28;20007;-61
2021/01/17 07:31:25;;;;;;;;;;;;;;;;;;5074848;28;19955;-61
2021/01/17 07:33:51;;;;;;;;;;;;;;;;;;5074456;28;19908;-60
2021/01/17 07:36:18;;;;;;;;;;;;;;;;;;5074215;28;20277;-61
2021/01/17 07:38:46;;;;;;;;;;;;;;;;;;5074338;28;19922;-60
2021/01/17 07:41:12;;;;;;;;;;;;;;;;;;5073560;28;19909;-61
2021/01/17 07:43:38;;;;;;;;;;;;;;;;;;5074495;28;19947;-60
2021/01/17 07:46:04;;;;;;;;;;;;;;;;;;5074282;28;19989;-60
2021/01/17 07:48:30;;;;;;;;;;;;;;;;;;5074430;28;20269;-61
2021/01/17 07:50:56;;;;;;;;;;;;;;;;;;5074285;28;19968;-61
2021/01/17 07:53:23;;;;;;;;;;;;;;;;;;5074059;28;19908;-61
2021/01/17 07:55:48;;;;;;;;;;;;;;;;;;5073981;28;20003;-61
2021/01/17 07:58:14;;;;;;;;;;;;;;;;;;5074058;28;19984;-61
2021/01/17 08:00:42;;;;;;;;;;;;;;;;;;5073644;28;19916;-61
2021/01/17 08:03:08;;;;;;;;;;;;;;;;;;5073618;28;19970;-61
2021/01/17 08:05:34;;;;;;;;;;;;;;;;;;5073804;28;19928;-61
2021/01/17 08:08:00;;;;;;;;;;;;;;;;;;5074039;28;19908;-60
2021/01/17 08:10:26;;;;;;;;;;;;;;;;;;5073747;28;20432;-61
2021/01/17 08:12:52;;;;;;;;;;;;;;;;;;5074009;28;19909;-61
2021/01/17 08:15:18;;;;;;;;;;;;;;;;;;5073799;28;19908;-61
2021/01/17 08:17:44;;;;;;;;;;;;;;;;;;5073857;28;20435;-61
2021/01/17 08:20:10;;;;;;;;;;;;;;;;;;5073683;28;19933;-61
2021/01/17 08:22:36;;;;;;;;;;;;;;;;;;5073535;28;19917;-60
2021/01/17 08:25:02;;;;;;;;;;;;;;;;;;5074018;28;19927;-60
2021/01/17 08:29:54;;;;;;;;;;;;;;;;;;5086630;28;19923;-61
2021/01/17 08:32:20;;;;;;;;;;;;;;;;;;5073607;28;19919;-60
2021/01/17 08:34:46;;;;;;;;;;;;;;;;;;5089098;28;19907;-61
2021/01/17 08:37:12;;;;;;;;;;;;;;;;;;5084570;28;19930;-61
2021/01/17 08:39:38;;;;;;;;;;;;;;;;;;5105358;28;20009;-61
2021/01/17 08:42:04;;;;;;;;;;;;;;;;;;5112166;28;19935;-60
2021/01/17 08:44:30;;;;;;;;;;;;;;;;;;5112425;28;19954;-60
2021/01/17 08:46:55;;;;;;;;;;;;;;;;;;5110546;28;19924;-60
2021/01/17 08:49:25;;;;;;;;;;;;;;;;;;5100721;28;20003;-61
2021/01/17 08:51:51;;;;;;;;;;;;;;;;;;5095414;28;19923;-61
2021/01/17 08:54:17;;;;;;;;;;;;;;;;;;5097308;28;19931;-61
2021/01/17 08:56:43;;;;;;;;;;;;;;;;;;5094024;28;19912;-62
2021/01/17 08:59:09;;;;;;;;;;;;;;;;;;5088203;28;19992;-62
2021/01/17 09:01:35;;;;;;;;;;;;;;;;;;5077020;28;19951;-62
2021/01/17 09:04:02;;;;;;;;;;;;;;;;;;5077465;28;19927;-62
2021/01/17 09:06:28;;;;;;;;;;;;;;;;;;5078917;28;19934;-63
2021/01/17 09:08:54;;;;;;;;;;;;;;;;;;5083699;28;19931;-61
2021/01/17 09:11:20;;;;;;;;;;;;;;;;;;5090557;28;19948;-62
2021/01/17 09:13:46;;;;;;;;;;;;;;;;;;5079618;28;20373;-62
2021/01/17 09:16:12;;;;;;;;;;;;;;;;;;5094830;28;20065;-61
2021/01/17 09:18:38;;;;;;;;;;;;;;;;;;5083978;28;19930;-63
2021/01/17 09:21:04;;;;;;;;;;;;;;;;;;5091636;28;20254;-67
2021/01/17 09:23:30;;;;;;;;;;;;;;;;;;5076954;28;19963;-60
2021/01/17 09:25:56;;;;;;;;;;;;;;;;;;5077210;28;19964;-61
2021/01/17 09:28:22;;;;;;;;;;;;;;;;;;5083599;28;19933;-61
2021/01/17 09:30:49;;;;;;;;;;;;;;;;;;5086055;28;20023;-61
2021/01/17 09:33:15;;;;;;;;;;;;;;;;;;5096972;28;19923;-61
2021/01/17 09:35:41;;;;;;;;;;;;;;;;;;5097176;28;19923;-61
2021/01/17 09:38:07;;;;;;;;;;;;;;;;;;5095687;28;20017;-61
2021/01/17 09:40:33;;;;;;;;;;;;;;;;;;5097100;28;19942;-61
2021/01/17 09:42:59;;;;;;;;;;;;;;;;;;5096921;28;20322;-61
2021/01/17 09:45:25;;;;;;;;;;;;;;;;;;5096977;28;19922;-62
2021/01/17 09:47:51;;;;;;;;;;;;;;;;;;5097209;28;19931;-62
2021/01/17 09:50:16;;;;;;;;;;;;;;;;;;5096848;28;20297;-61
2021/01/17 09:52:42;;;;;;;;;;;;;;;;;;5095407;28;19948;-60
2021/01/17 09:55:08;;;;;;;;;;;;;;;;;;5083158;28;19927;-62
2021/01/17 09:57:34;;;;;;;;;;;;;;;;;;5076286;28;19970;-61
2021/01/17 10:00:00;;;;;;;;;;;;;;;;;;5076356;28;19950;-60
2021/01/17 10:02:27;;;;;;;;;;;;;;;;;;5083975;28;19979;-60
2021/01/17 10:04:53;;;;;;;;;;;;;;;;;;5076240;28;19929;-62
2021/01/17 10:07:20;;;;;;;;;;;;;;;;;;5078670;28;19933;-62
2021/01/17 10:09:46;;;;;;;;;;;;;;;;;;5085282;28;19909;-61
2021/01/17 10:12:12;;;;;;;;;;;;;;;;;;5076096;28;19940;-60
2021/01/17 10:14:38;;;;;;;;;;;;;;;;;;5075704;28;19927;-60
2021/01/17 10:17:05;;;;;;;;;;;;;;;;;;5075973;28;19923;-61
2021/01/17 10:19:31;;;;;;;;;;;;;;;;;;5075979;28;19993;-60
2021/01/17 10:21:57;;;;;;;;;;;;;;;;;;5075861;28;19920;-61
2021/01/17 10:24:23;;;;;;;;;;;;;;;;;;5075812;28;19916;-62
2021/01/17 10:26:49;;;;;;;;;;;;;;;;;;5075839;28;19919;-61
2021/01/17 10:29:15;;;;;;;;;;;;;;;;;;5075641;28;20296;-61
2021/01/17 10:31:41;;;;;;;;;;;;;;;;;;5075636;28;19923;-61
2021/01/17 10:34:07;;;;;;;;;;;;;;;;;;5075471;28;19948;-60
2021/01/17 10:36:33;;;;;;;;;;;;;;;;;;5075482;28;19923;-61
2021/01/17 10:38:59;;;;;;;;;;;;;;;;;;5075472;28;19920;-61
2021/01/17 10:41:25;;;;;;;;;;;;;;;;;;5075488;28;19935;-61
2021/01/17 10:43:51;;;;;;;;;;;;;;;;;;5075375;28;19948;-62
2021/01/17 10:46:17;;;;;;;;;;;;;;;;;;5075322;28;19914;-61
2021/01/17 10:48:43;;;;;;;;;;;;;;;;;;5074024;28;19952;-60
2021/01/17 10:51:09;;;;;;;;;;;;;;;;;;5075253;28;20317;-61
2021/01/17 10:53:35;;;;;;;;;;;;;;;;;;5075247;28;19916;-61
2021/01/17 10:56:01;;;;;;;;;;;;;;;;;;5075052;28;19949;-61
2021/01/17 10:58:27;;;;;;;;;;;;;;;;;;5074996;28;19930;-62
2021/01/17 11:00:53;;;;;;;;;;;;;;;;;;5074958;28;19976;-62
2021/01/17 11:03:19;;;;;;;;;;;;;;;;;;5074937;28;19943;-61
2021/01/17 11:05:47;;;;;;;;;;;;;;;;;;5075280;28;19923;-62
2021/01/17 11:08:13;;;;;;;;;;;;;;;;;;5074993;28;19962;-61
2021/01/17 11:10:39;;;;;;;;;;;;;;;;;;5074843;28;19919;-62
2021/01/17 11:13:05;;;;;;;;;;;;;;;;;;5075007;28;20354;-62
2021/01/17 11:15:34;;;;;;;;;;;;;;;;;;5073598;28;19942;-61
2021/01/17 11:18:00;;;;;;;;;;;;;;;;;;5074894;28;19943;-62
2021/01/17 11:20:26;;;;;;;;;;;;;;;;;;5074595;28;20394;-62
2021/01/17 11:22:52;;;;;;;;;;;;;;;;;;5074627;28;19953;-61
2021/01/17 11:25:18;;;;;;;;;;;;;;;;;;5074880;28;19933;-62
2021/01/17 11:27:46;;;;;;;;;;;;;;;;;;5074639;28;19912;-62
2021/01/17 11:30:12;;;;;;;;;;;;;;;;;;5074492;28;20255;-62
2021/01/17 11:32:38;;;;;;;;;;;;;;;;;;5074634;28;19966;-62
2021/01/17 11:35:04;;;;;;;;;;;;;;;;;;5074444;28;20317;-62
2021/01/17 11:37:30;;;;;;;;;;;;;;;;;;5074439;28;19931;-62
2021/01/17 11:39:56;;;;;;;;;;;;;;;;;;5074327;28;19997;-62
2021/01/17 11:42:22;;;;;;;;;;;;;;;;;;5074203;28;19959;-62
2021/01/17 11:44:47;;;;;;;;;;;;;;;;;;5074205;28;19923;-62
2021/01/17 11:47:13;;;;;;;;;;;;;;;;;;5074622;28;19981;-61
2021/01/17 11:49:39;;;;;;;;;;;;;;;;;;5074093;28;20391;-62
2021/01/17 11:52:05;;;;;;;;;;;;;;;;;;5074145;28;19930;-61
2021/01/17 11:54:32;;;;;;;;;;;;;;;;;;5074065;28;19920;-62
2021/01/17 11:56:58;;;;;;;;;;;;;;;;;;5074154;28;19932;-62
2021/01/17 11:59:24;;;;;;;;;;;;;;;;;;5074323;28;19909;-62
2021/01/17 12:01:50;;;;;;;;;;;;;;;;;;5073729;28;19971;-62
2021/01/17 12:04:16;;;;;;;;;;;;;;;;;;5074056;28;19993;-62
2021/01/17 12:06:42;;;;;;;;;;;;;;;;;;5074089;28;19973;-62
2021/01/17 12:09:08;;;;;;;;;;;;;;;;;;5074034;28;20380;-62
2021/01/17 12:11:34;;;;;;;;;;;;;;;;;;5073898;28;19975;-61
2021/01/17 12:14:00;;;;;;;;;;;;;;;;;;5096209;28;19946;-61
2021/01/17 12:16:26;;;;;;;;;;;;;;;;;;5091568;28;19935;-61
2021/01/17 12:18:52;;;;;;;;;;;;;;;;;;5081174;28;19916;-62
2021/01/17 12:21:18;;;;;;;;;;;;;;;;;;5073858;28;19915;-60
2021/01/17 12:23:44;;;;;;;;;;;;;;;;;;5093974;28;20420;-62
2021/01/17 12:26:09;;;;;;;;;;;;;;;;;;5093490;28;19927;-61
2021/01/17 12:28:35;;;;;;;;;;;;;;;;;;5095340;28;19942;-62
2021/01/17 12:31:01;;;;;;;;;;;;;;;;;;5096315;28;19926;-61
2021/01/17 12:33:27;;;;;;;;;;;;;;;;;;5093844;28;20400;-61
2021/01/17 12:35:53;;;;;;;;;;;;;;;;;;5096525;28;20037;-61
2021/01/17 12:38:19;;;;;;;;;;;;;;;;;;5112791;28;19985;-62
2021/01/17 12:40:45;;;;;;;;;;;;;;;;;;5114365;28;19936;-62
2021/01/17 12:43:11;;;;;;;;;;;;;;;;;;5112303;28;19950;-62
2021/01/17 12:45:37;;;;;;;;;;;;;;;;;;5105313;28;19926;-61
2021/01/17 12:48:04;;;;;;;;;;;;;;;;;;5093745;28;19931;-62
2021/01/17 12:50:30;;;;;;;;;;;;;;;;;;5093586;28;19947;-62
2021/01/17 12:52:56;;;;;;;;;;;;;;;;;;5094936;28;20371;-60
2021/01/17 12:55:22;;;;;;;;;;;;;;;;;;5093649;28;19929;-60
2021/01/17 12:57:48;;;;;;;;;;;;;;;;;;5093579;28;19924;-61
2021/01/17 13:00:13;;;;;;;;;;;;;;;;;;5093676;28;19921;-61
2021/01/17 13:02:40;;;;;;;;;;;;;;;;;;5088932;28;19952;-61
2021/01/17 13:05:06;;;;;;;;;;;;;;;;;;5075799;28;19943;-61
2021/01/17 13:07:32;;;;;;;;;;;;;;;;;;5073522;28;19919;-61
2021/01/17 13:09:58;;;;;;;;;;;;;;;;;;5075010;28;19912;-61
2021/01/17 13:12:24;;;;;;;;;;;;;;;;;;5072894;28;19947;-61
2021/01/17 13:14:50;;;;;;;;;;;;;;;;;;5080953;28;20376;-61
2021/01/17 13:17:16;;;;;;;;;;;;;;;;;;5082369;28;19919;-61
2021/01/17 13:19:42;;;;;;;;;;;;;;;;;;5078001;28;20071;-60
2021/01/17 13:22:07;;;;;;;;;;;;;;;;;;5082323;28;20025;-60
2021/01/17 13:24:33;;;;;;;;;;;;;;;;;;5073093;28;19987;-60
2021/01/17 13:26:59;;;;;;;;;;;;;;;;;;5073258;28;19908;-61
2021/01/17 13:29:25;;;;;;;;;;;;;;;;;;5073161;28;20269;-60
2021/01/17 13:31:51;;;;;;;;;;;;;;;;;;5073025;28;20047;-61
2021/01/17 13:34:19;;;;;;;;;;;;;;;;;;5073182;28;19936;-60
2021/01/17 13:36:45;;;;;;;;;;;;;;;;;;5105422;28;20353;-60
2021/01/17 13:39:11;;;;;;;;;;;;;;;;;;5096109;28;19918;-61
2021/01/17 13:41:37;;;;;;;;;;;;;;;;;;5098161;28;20300;-60
2021/01/17 13:44:03;;;;;;;;;;;;;;;;;;5098003;28;19962;-60
2021/01/17 13:46:29;;;;;;;;;;;;;;;;;;5098292;28;19983;-60
2021/01/17 13:48:55;;;;;;;;;;;;;;;;;;5083550;28;20395;-61
2021/01/17 13:51:21;;;;;;;;;;;;;;;;;;5087430;28;19923;-64
2021/01/17 13:53:47;;;;;;;;;;;;;;;;;;5084166;28;20010;-60
2021/01/17 13:56:13;;;;;;;;;;;;;;;;;;5079784;28;19925;-60
2021/01/17 13:58:39;;;;;;;;;;;;;;;;;;5093410;28;20065;-60
2021/01/17 14:01:04;;;;;;;;;;;;;;;;;;5096402;28;19949;-61
2021/01/17 14:03:30;;;;;;;;;;;;;;;;;;5096480;28;19952;-61
2021/01/17 14:05:56;;;;;;;;;;;;;;;;;;5096738;28;19942;-60
2021/01/17 14:08:25;;;;;;;;;;;;;;;;;;5096807;28;20380;-61
2021/01/17 14:10:51;;;;;;;;;;;;;;;;;;5097528;28;19908;-60
2021/01/17 14:13:17;;;;;;;;;;;;;;;;;;5096351;28;19979;-61
2021/01/17 14:15:42;;;;;;;;;;;;;;;;;;5097101;28;19916;-60
2021/01/17 14:18:08;;;;;;;;;;;;;;;;;;5087416;28;19947;-60
2021/01/17 14:20:34;;;;;;;;;;;;;;;;;;5082574;28;20332;-60
2021/01/17 14:23:00;;;;;;;;;;;;;;;;;;5096142;28;19993;-60
2021/01/17 14:25:26;;;;;;;;;;;;;;;;;;5097347;28;19950;-61
2021/01/17 14:27:52;;;;;;;;;;;;;;;;;;5095969;28;20250;-61
2021/01/17 14:30:18;;;;;;;;;;;;;;;;;;5096094;28;20383;-60
2021/01/17 14:32:44;;;;;;;;;;;;;;;;;;5095931;28;19959;-61
2021/01/17 14:35:10;;;;;;;;;;;;;;;;;;5095924;28;19922;-61
2021/01/17 14:37:36;;;;;;;;;;;;;;;;;;5096190;28;20054;-62
2021/01/17 14:40:02;;;;;;;;;;;;;;;;;;5095824;28;20293;-62
2021/01/17 14:42:28;;;;;;;;;;;;;;;;;;5095683;28;19972;-61
2021/01/17 14:44:54;;;;;;;;;;;;;;;;;;5115209;28;19926;-61
2021/01/17 14:47:20;;;;;;;;;;;;;;;;;;5116068;28;19931;-61
2021/01/17 14:49:46;;;;;;;;;;;;;;;;;;5115891;28;19964;-61
2021/01/17 14:52:12;;;;;;;;;;;;;;;;;;5116352;28;19924;-61
2021/01/17 14:54:38;;;;;;;;;;;;;;;;;;5111087;28;19919;-60
2021/01/17 14:57:04;;;;;;;;;;;;;;;;;;5095553;28;19927;-60
2021/01/17 14:59:31;;;;;;;;;;;;;;;;;;5099616;28;19918;-61
2021/01/17 15:01:57;;;;;;;;;;;;;;;;;;5095371;28;19964;-60
2021/01/17 15:04:23;;;;;;;;;;;;;;;;;;5095340;28;19924;-60
2021/01/17 15:06:49;;;;;;;;;;;;;;;;;;5095394;28;19926;-61
2021/01/17 15:09:15;;;;;;;;;;;;;;;;;;5095253;28;19970;-60
2021/01/17 15:11:41;;;;;;;;;;;;;;;;;;5095328;28;20288;-60
2021/01/17 15:14:07;;;;;;;;;;;;;;;;;;5095197;28;19919;-60
2021/01/17 15:16:33;;;;;;;;;;;;;;;;;;5095176;28;19918;-60
2021/01/17 15:18:59;;;;;;;;;;;;;;;;;;5095452;28;19952;-61
2021/01/17 15:21:25;;;;;;;;;;;;;;;;;;5093232;28;20311;-60
2021/01/17 15:23:51;;;;;;;;;;;;;;;;;;5092075;28;20372;-60
2021/01/17 15:26:17;;;;;;;;;;;;;;;;;;5074767;28;19947;-60
2021/01/17 15:28:43;;;;;;;;;;;;;;;;;;5074342;28;20336;-60
2021/01/17 15:31:09;;;;;;;;;;;;;;;;;;5077107;28;19926;-61
2021/01/17 15:33:34;;;;;;;;;;;;;;;;;;5083261;28;20442;-61
2021/01/17 15:36:00;;;;;;;;;;;;;;;;;;5074637;28;19916;-61
2021/01/17 15:38:26;;;;;;;;;;;;;;;;;;5074693;28;19976;-61
2021/01/17 15:40:52;;;;;;;;;;;;;;;;;;5074419;28;20394;-60
2021/01/17 15:43:18;;;;;;;;;;;;;;;;;;5074149;28;19954;-61
2021/01/17 15:45:44;;;;;;;;;;;;;;;;;;5074264;28;19916;-61
2021/01/17 15:48:10;;;;;;;;;;;;;;;;;;5074187;28;19966;-61
2021/01/17 15:50:36;;;;;;;;;;;;;;;;;;5074571;28;19956;-61
2021/01/17 15:53:02;;;;;;;;;;;;;;;;;;5074580;28;19920;-61
2021/01/17 15:55:28;;;;;;;;;;;;;;;;;;5074423;28;20022;-61
2021/01/17 15:57:54;;;;;;;;;;;;;;;;;;5074239;28;19973;-61
2021/01/17 16:00:20;;;;;;;;;;;;;;;;;;5073920;28;19928;-60
2021/01/17 16:02:46;;;;;;;;;;;;;;;;;;5073806;28;19962;-60
2021/01/17 16:05:13;;;;;;;;;;;;;;;;;;5074059;28;19923;-61
2021/01/17 16:07:39;;;;;;;;;;;;;;;;;;5102194;28;19908;-60
2021/01/17 16:10:05;;;;;;;;;;;;;;;;;;5114613;28;19931;-61
2021/01/17 16:12:31;;;;;;;;;;;;;;;;;;5114518;28;19915;-59
2021/01/17 16:14:57;;;;;;;;;;;;;;;;;;5093098;28;20317;-61
2021/01/17 16:17:23;;;;;;;;;;;;;;;;;;5093243;28;19922;-60
2021/01/17 16:19:49;;;;;;;;;;;;;;;;;;5094085;28;19973;-60
2021/01/17 16:22:15;;;;;;;;;;;;;;;;;;5091818;28;20010;-61
2021/01/17 16:24:41;;;;;;;;;;;;;;;;;;5083068;28;19943;-60
2021/01/17 16:27:08;;;;;;;;;;;;;;;;;;5085047;28;19996;-60
2021/01/17 16:29:34;;;;;;;;;;;;;;;;;;5093023;28;20421;-60
2021/01/17 16:32:00;;;;;;;;;;;;;;;;;;5082369;28;19933;-59
2021/01/17 16:34:26;;;;;;;;;;;;;;;;;;5073338;28;19913;-61
2021/01/17 16:36:54;;;;;;;;;;;;;;;;;;5080216;28;19926;-60
2021/01/17 16:39:20;;;;;;;;;;;;;;;;;;5110676;28;20013;-60